Terminal Aerodrome Forecast
Issued by NWS Knoxville/Tri Cities, TN

Home | Current Version | Previous Version | Text Only | Print | Product List | Glossary On
Versions: 1 2 3 4 5 6 7 8 9 10 11 12
000
FTUS44 KMRX 232330
TAFTRI
TAF
KTRI 232330Z 2400/2424 VRB04KT P6SM FEW060 SCT080 BKN150
     FM240300 00000KT P6SM SCT150
     FM241500 VRB03KT P6SM SCT045 SCT200=

USA.gov is the U.S. government's official web portal to all federal, state and local government web resources and services.